createdAt,value
2018-04-20T00:01:19.586Z,10.47
2018-04-20T00:03:47.106Z,9.30
2018-04-20T00:06:14.627Z,11.03
2018-04-20T00:08:42.169Z,10.47
2018-04-20T00:11:09.689Z,10.67
2018-04-20T00:13:37.236Z,12.20
2018-04-20T00:16:04.789Z,12.17
2018-04-20T00:18:32.429Z,12.93
2018-04-20T00:20:59.972Z,12.07
2018-04-20T00:23:27.547Z,12.07
2018-04-20T00:25:55.111Z,12.60
2018-04-20T00:28:22.677Z,13.47
2018-04-20T00:30:50.220Z,13.13
2018-04-20T00:33:17.753Z,13.70
2018-04-20T00:35:46.069Z,13.77
2018-04-20T00:38:13.603Z,15.13
2018-04-20T00:40:42.015Z,15.03
2018-04-20T00:43:09.571Z,15.40
2018-04-20T00:45:37.118Z,13.13
2018-04-20T00:48:06.341Z,13.67
2018-04-20T00:50:33.879Z,14.07
2018-04-20T00:53:01.451Z,12.93
2018-04-20T00:55:28.978Z,13.93
2018-04-20T00:57:57.304Z,14.73
2018-04-20T01:00:24.844Z,15.50
2018-04-20T01:02:52.363Z,14.17
2018-04-20T01:05:20.685Z,13.40
2018-04-20T01:07:48.243Z,15.00
2018-04-20T01:10:15.798Z,12.57
2018-04-20T01:12:43.333Z,13.70
2018-04-20T01:15:11.653Z,14.47
2018-04-20T01:17:39.207Z,16.73
2018-04-20T01:20:06.735Z,14.23
2018-04-20T01:22:35.033Z,14.17
2018-04-20T01:25:02.559Z,15.10
2018-04-20T01:27:30.879Z,13.50
2018-04-20T01:29:58.637Z,15.80
2018-04-20T01:32:26.156Z,13.80
2018-04-20T01:34:54.444Z,14.27
2018-04-20T01:37:22.864Z,13.37
2018-04-20T01:39:50.397Z,15.30
2018-04-20T01:42:17.927Z,11.77
2018-04-20T01:44:46.246Z,15.30
2018-04-20T01:47:13.765Z,12.07
2018-04-20T01:49:42.093Z,13.53
2018-04-20T01:52:09.631Z,16.07
2018-04-20T01:54:37.147Z,10.90
2018-04-20T01:57:04.679Z,14.70
2018-04-20T01:59:32.210Z,13.13
2018-04-20T02:01:59.731Z,10.67
2018-04-20T02:04:27.257Z,11.17
2018-04-20T02:06:55.015Z,11.93
2018-04-20T02:09:22.574Z,10.33
2018-04-20T02:11:50.130Z,13.77
2018-04-20T02:14:17.672Z,13.33
2018-04-20T02:16:45.976Z,10.70
2018-04-20T02:19:13.508Z,10.77
2018-04-20T02:21:41.033Z,10.60
2018-04-20T02:24:08.649Z,13.70
2018-04-20T02:26:36.212Z,13.40
2018-04-20T02:29:03.762Z,12.90
2018-04-20T02:31:31.279Z,11.57
2018-04-20T02:33:58.813Z,11.47
2018-04-20T02:36:26.348Z,12.40
2018-04-20T02:38:54.041Z,13.53
2018-04-20T02:41:21.737Z,17.63
2018-04-20T02:43:50.083Z,12.47
2018-04-20T02:46:17.620Z,14.73
2018-04-20T02:48:45.152Z,13.63
2018-04-20T02:51:12.743Z,10.70
2018-04-20T02:53:40.287Z,11.10
2018-04-20T02:56:07.816Z,13.07
2018-04-20T02:58:36.226Z,13.53
2018-04-20T03:01:03.762Z,12.03
2018-04-20T03:03:32.068Z,16.17
2018-04-20T03:05:59.626Z,12.67
2018-04-20T03:08:27.163Z,15.10
2018-04-20T03:10:55.464Z,13.57
2018-04-20T03:13:23.010Z,11.87
2018-04-20T03:15:50.552Z,12.40
2018-04-20T03:18:18.853Z,13.30
2018-04-20T03:20:46.436Z,12.13
2018-04-20T03:23:13.987Z,16.27
2018-04-20T03:25:41.562Z,11.87
2018-04-20T03:28:09.219Z,13.43
2018-04-20T03:30:36.755Z,14.23
2018-04-20T03:33:04.304Z,13.70
2018-04-20T03:35:32.713Z,11.87
2018-04-20T03:38:00.247Z,11.73
2018-04-20T03:40:28.551Z,13.67
2018-04-20T03:42:56.090Z,11.47
2018-04-20T03:45:23.617Z,19.17
2018-04-20T03:47:52.660Z,11.73
2018-04-20T03:50:20.213Z,11.83
2018-04-20T03:52:49.735Z,12.03
2018-04-20T03:55:17.296Z,13.83
2018-04-20T03:57:44.844Z,13.17
2018-04-20T04:00:12.377Z,13.40
2018-04-20T04:02:40.664Z,13.03
2018-04-20T04:05:08.246Z,12.57
2018-04-20T04:07:35.785Z,14.33
2018-04-20T04:10:03.367Z,14.50
2018-04-20T04:12:30.914Z,13.13
2018-04-20T04:14:58.447Z,12.13
2018-04-20T04:17:38.443Z,12.47
2018-04-20T04:20:17.815Z,13.27
2018-04-20T04:22:57.258Z,13.67
2018-04-20T04:25:37.460Z,14.27
2018-04-20T04:28:16.846Z,12.40
2018-04-20T04:30:44.476Z,16.43
2018-04-20T04:33:12.006Z,13.27
2018-04-20T04:35:40.313Z,12.27
2018-04-20T04:38:07.869Z,14.00
2018-04-20T04:40:35.401Z,11.80
2018-04-20T04:43:03.713Z,11.93
2018-04-20T04:45:31.243Z,11.43
2018-04-20T04:47:59.609Z,16.67
2018-04-20T04:50:27.196Z,12.60
2018-04-20T04:52:54.722Z,11.17
2018-04-20T04:55:23.043Z,13.93
2018-04-20T04:57:50.585Z,12.40
2018-04-20T05:00:18.123Z,13.33
2018-04-20T05:02:46.416Z,11.10
2018-04-20T05:05:14.715Z,12.80
2018-04-20T05:07:42.251Z,15.03
2018-04-20T05:10:10.549Z,12.47
2018-04-20T05:12:38.073Z,13.80
2018-04-20T05:15:06.392Z,12.40
2018-04-20T05:17:33.930Z,10.20
2018-04-20T05:20:01.516Z,11.57
2018-04-20T05:22:29.057Z,10.80
2018-04-20T05:24:56.625Z,13.80
2018-04-20T05:27:24.177Z,10.97
2018-04-20T05:29:51.710Z,12.70
2018-04-20T05:32:20.006Z,10.73
2018-04-20T05:34:47.546Z,13.37
2018-04-20T05:37:15.845Z,13.03
2018-04-20T05:39:44.141Z,14.10
2018-04-20T05:42:11.683Z,9.37
2018-04-20T05:44:39.222Z,11.53
2018-04-20T05:47:07.511Z,9.93
2018-04-20T05:49:35.895Z,9.57
2018-04-20T05:52:04.184Z,10.37
2018-04-20T05:54:31.707Z,12.90
2018-04-20T05:57:00.011Z,10.07
2018-04-20T05:59:28.308Z,13.80
2018-04-20T06:01:55.843Z,11.13
2018-04-20T06:04:23.396Z,12.00
2018-04-20T06:06:51.703Z,11.87
2018-04-20T06:09:19.231Z,11.63
2018-04-20T06:11:47.545Z,12.40
2018-04-20T06:14:15.077Z,11.47
2018-04-20T06:16:43.370Z,12.77
2018-04-20T06:19:10.927Z,12.60
2018-04-20T06:21:38.451Z,15.00
2018-04-20T06:24:05.997Z,12.60
2018-04-20T06:26:33.568Z,13.67
2018-04-20T06:29:01.107Z,12.93
2018-04-20T06:31:28.639Z,14.30
2018-04-20T06:33:56.183Z,13.17
2018-04-20T06:36:23.706Z,12.83
2018-04-20T06:38:51.313Z,13.67
2018-04-20T06:41:18.864Z,13.77
2018-04-20T06:43:46.471Z,12.90
2018-04-20T06:46:14.085Z,12.90
2018-04-20T06:48:42.383Z,15.13
2018-04-20T06:51:09.948Z,15.40
2018-04-20T06:53:37.497Z,13.10
2018-04-20T06:56:05.046Z,13.07
2018-04-20T06:58:32.569Z,13.67
2018-04-20T07:01:01.618Z,13.00
2018-04-20T07:03:29.154Z,16.27
2018-04-20T07:05:57.455Z,14.20
2018-04-20T07:08:25.008Z,13.73
2018-04-20T07:10:52.539Z,17.10
2018-04-20T07:13:20.857Z,16.17
2018-04-20T07:15:48.385Z,12.60
2018-04-20T07:18:16.719Z,14.30
2018-04-20T07:20:44.248Z,13.37
2018-04-20T07:23:11.778Z,12.57
2018-04-20T07:25:40.100Z,15.30
2018-04-20T07:28:07.626Z,12.20
2018-04-20T07:30:35.919Z,14.87
2018-04-20T07:33:03.455Z,13.40
2018-04-20T07:35:31.759Z,14.67
2018-04-20T07:37:59.287Z,13.60
2018-04-20T07:40:27.592Z,13.40
2018-04-20T07:42:55.125Z,17.27
2018-04-20T07:45:23.486Z,12.17
2018-04-20T07:47:50.989Z,14.40
2018-04-20T07:50:18.549Z,13.23
2018-04-20T07:52:46.079Z,13.10
2018-04-20T07:55:14.484Z,14.27
2018-04-20T07:57:42.012Z,15.27
2018-04-20T08:00:11.039Z,14.97
2018-04-20T08:02:38.577Z,13.00
2018-04-20T08:05:06.876Z,12.60
2018-04-20T08:07:34.444Z,13.37
2018-04-20T08:10:02.007Z,13.37
2018-04-20T08:12:29.540Z,13.30
2018-04-20T08:14:57.824Z,14.53
2018-04-20T08:17:26.228Z,13.53
2018-04-20T08:19:53.772Z,14.97
2018-04-20T08:22:21.296Z,12.47
2018-04-20T08:24:48.827Z,14.93
2018-04-20T08:27:16.355Z,14.33
2018-04-20T08:29:43.901Z,12.17
2018-04-20T08:32:12.300Z,10.07
2018-04-20T08:34:39.824Z,15.53
2018-04-20T08:37:08.116Z,12.00
2018-04-20T08:39:36.516Z,15.30
2018-04-20T08:42:04.121Z,9.87
2018-04-20T08:44:31.646Z,11.87
2018-04-20T08:46:59.211Z,15.47
2018-04-20T08:49:26.727Z,13.37
2018-04-20T08:51:55.021Z,10.97
2018-04-20T08:54:22.553Z,11.47
2018-04-20T08:56:50.867Z,9.70
2018-04-20T08:59:18.392Z,11.30
2018-04-20T09:01:47.448Z,10.30
2018-04-20T09:04:14.972Z,14.50
2018-04-20T09:06:42.506Z,11.07
2018-04-20T09:09:10.793Z,14.27
2018-04-20T09:11:39.096Z,9.93
2018-04-20T09:14:06.648Z,9.93
2018-04-20T09:16:34.216Z,11.60
2018-04-20T09:19:01.780Z,11.87
2018-04-20T09:21:29.342Z,13.27
2018-04-20T09:23:56.882Z,7.97
2018-04-20T09:26:25.191Z,10.50
2018-04-20T09:28:52.708Z,11.40
2018-04-20T09:31:21.014Z,10.97
2018-04-20T09:33:48.540Z,7.97
2018-04-20T09:36:16.844Z,10.77
2018-04-20T09:38:44.380Z,9.37
2018-04-20T09:41:12.684Z,11.57
2018-04-20T09:43:40.198Z,8.00
2018-04-20T09:46:07.766Z,8.20
2018-04-20T09:48:35.384Z,10.30
2018-04-20T09:51:02.922Z,7.67
2018-04-20T09:53:30.448Z,6.10
2018-04-20T09:55:57.976Z,7.10
2018-04-20T09:58:25.525Z,7.73
2018-04-20T10:00:53.071Z,9.17
2018-04-20T10:03:20.596Z,7.20
2018-04-20T10:05:48.941Z,6.93
2018-04-20T10:08:16.497Z,5.33
2018-04-20T10:10:44.360Z,10.87
2018-04-20T10:13:11.904Z,5.63
2018-04-20T10:15:39.434Z,8.87
2018-04-20T10:18:07.738Z,6.80
2018-04-20T10:20:35.284Z,8.50
2018-04-20T10:23:02.838Z,5.83
2018-04-20T10:25:31.124Z,6.67
2018-04-20T10:27:58.639Z,8.57
2018-04-20T10:30:26.170Z,7.57
2018-04-20T10:32:53.716Z,7.37
2018-04-20T10:35:21.243Z,11.33
2018-04-20T10:37:49.532Z,8.00
2018-04-20T10:40:17.837Z,10.90
2018-04-20T10:42:45.355Z,8.97
2018-04-20T10:45:13.655Z,8.73
2018-04-20T10:47:41.229Z,8.30
2018-04-20T10:50:08.786Z,9.23
2018-04-20T10:52:36.324Z,12.57
2018-04-20T10:55:04.624Z,8.67
2018-04-20T10:57:32.142Z,7.30
2018-04-20T10:59:59.668Z,7.57
2018-04-20T11:02:27.205Z,8.60
2018-04-20T11:04:54.721Z,9.27
2018-04-20T11:07:22.257Z,9.80
2018-04-20T11:09:49.816Z,9.23
2018-04-20T11:12:17.333Z,11.07
2018-04-20T11:14:44.863Z,9.00
2018-04-20T11:17:13.147Z,5.73
2018-04-20T11:19:41.460Z,10.00
2018-04-20T11:22:09.014Z,11.57
2018-04-20T11:24:36.565Z,10.83
2018-04-20T11:27:04.101Z,9.33
2018-04-20T11:29:32.405Z,8.83
2018-04-20T11:31:59.923Z,8.37
2018-04-20T11:34:27.461Z,4.50
2018-04-20T11:36:55.049Z,7.63
2018-04-20T11:39:22.554Z,6.90
2018-04-20T11:41:50.078Z,9.00
2018-04-20T11:44:18.374Z,7.03
2018-04-20T11:46:45.888Z,10.70
2018-04-20T11:49:13.420Z,9.43
2018-04-20T11:51:40.991Z,10.37
2018-04-20T11:54:08.545Z,5.83
2018-04-20T11:56:36.956Z,7.70
2018-04-20T11:59:05.261Z,8.23
2018-04-20T12:01:33.623Z,6.93
2018-04-20T12:04:01.153Z,8.10
2018-04-20T12:06:28.911Z,6.30
2018-04-20T12:08:56.430Z,6.73
2018-04-20T12:11:24.711Z,10.07
2018-04-20T12:13:53.003Z,10.97
2018-04-20T12:16:20.533Z,7.17
2018-04-20T12:18:48.823Z,10.70
2018-04-20T12:21:17.263Z,6.93
2018-04-20T12:23:44.776Z,5.97
2018-04-20T12:26:12.312Z,7.00
2018-04-20T12:28:40.608Z,6.77
2018-04-20T12:31:08.135Z,8.93
2018-04-20T12:33:35.679Z,8.90
2018-04-20T12:36:03.298Z,6.77
2018-04-20T12:38:30.880Z,7.67
2018-04-20T12:40:58.405Z,8.57
2018-04-20T12:43:26.703Z,11.27
2018-04-20T12:45:54.211Z,7.40
2018-04-20T12:48:21.826Z,7.70
2018-04-20T12:50:49.347Z,5.10
2018-04-20T12:53:17.623Z,6.57
2018-04-20T12:55:45.919Z,9.03
2018-04-20T12:58:14.217Z,6.43
2018-04-20T13:00:41.786Z,7.70
2018-04-20T13:03:09.339Z,6.23
2018-04-20T13:05:36.872Z,6.67
2018-04-20T13:08:05.157Z,4.60
2018-04-20T13:10:32.718Z,7.07
2018-04-20T13:13:00.258Z,10.53
2018-04-20T13:15:28.566Z,6.97
2018-04-20T13:17:56.072Z,8.13
2018-04-20T13:20:23.604Z,6.73
2018-04-20T13:22:51.128Z,8.43
2018-04-20T13:25:19.423Z,7.23
2018-04-20T13:27:46.950Z,6.90
2018-04-20T13:30:15.271Z,9.10
2018-04-20T13:32:42.823Z,9.47
2018-04-20T13:35:10.358Z,4.93
2018-04-20T13:37:38.649Z,5.53
2018-04-20T13:40:06.163Z,8.33
2018-04-20T13:42:33.709Z,6.83
2018-04-20T13:45:01.239Z,8.33
2018-04-20T13:47:28.755Z,6.80
2018-04-20T13:49:56.285Z,7.17
2018-04-20T13:52:23.797Z,7.80
2018-04-20T13:54:52.091Z,8.33
2018-04-20T13:57:19.621Z,33.93
2018-04-20T13:59:47.941Z,9.60
2018-04-20T14:02:15.467Z,7.23
2018-04-20T14:04:43.781Z,6.33
2018-04-20T14:07:11.297Z,9.77
2018-04-20T14:09:39.599Z,12.00
2018-04-20T14:12:07.124Z,4.40
2018-04-20T14:14:34.743Z,8.17
2018-04-20T14:17:02.259Z,5.97
2018-04-20T14:19:30.556Z,5.03
2018-04-20T14:21:58.118Z,6.20
2018-04-20T14:24:25.630Z,5.43
2018-04-20T14:26:53.166Z,5.77
2018-04-20T14:29:20.677Z,4.47
2018-04-20T14:31:48.956Z,4.13
2018-04-20T14:34:17.352Z,5.50
2018-04-20T14:36:44.875Z,4.53
2018-04-20T14:39:12.393Z,5.63
2018-04-20T14:41:39.927Z,7.63
2018-04-20T14:44:07.540Z,7.00
2018-04-20T14:46:35.081Z,4.27
2018-04-20T14:49:02.611Z,4.90
2018-04-20T14:51:30.125Z,5.97
2018-04-20T14:53:58.395Z,9.10
2018-04-20T14:56:25.922Z,6.33
2018-04-20T14:58:53.446Z,7.70
2018-04-20T15:01:21.742Z,5.07
2018-04-20T15:03:49.285Z,7.20
2018-04-20T15:06:17.574Z,6.30
2018-04-20T15:08:45.870Z,8.30
2018-04-20T15:11:13.414Z,8.50
2018-04-20T15:13:41.918Z,5.67
2018-04-20T15:16:09.469Z,8.73
2018-04-20T15:18:37.021Z,8.20
2018-04-20T15:21:04.575Z,7.07
2018-04-20T15:23:32.863Z,7.63
2018-04-20T15:26:00.391Z,8.20
2018-04-20T15:28:28.708Z,8.77
2018-04-20T15:30:56.244Z,5.20
2018-04-20T15:33:24.540Z,5.57
2018-04-20T15:35:52.105Z,5.77
2018-04-20T15:38:19.687Z,5.03
2018-04-20T15:40:47.205Z,6.63
2018-04-20T15:43:15.517Z,9.87
2018-04-20T15:45:43.045Z,11.40
2018-04-20T15:48:11.402Z,13.23
2018-04-20T15:50:39.732Z,13.70
2018-04-20T15:53:07.264Z,12.07
2018-04-20T15:55:35.563Z,13.70
2018-04-20T15:58:03.084Z,18.90
2018-04-20T16:00:31.378Z,19.33
2018-04-20T16:02:59.683Z,24.33
2018-04-20T16:05:27.201Z,20.93
2018-04-20T16:07:55.496Z,21.57
2018-04-20T16:10:23.800Z,19.80
2018-04-20T16:12:51.351Z,24.13
2018-04-20T16:15:18.868Z,20.07
2018-04-20T16:17:46.404Z,19.03
2018-04-20T16:20:13.994Z,19.87
2018-04-20T16:22:41.525Z,20.77
2018-04-20T16:25:09.168Z,18.23
2018-04-20T16:27:36.764Z,17.87
2018-04-20T16:30:04.298Z,19.90
2018-04-20T16:32:31.840Z,18.13
2018-04-20T16:34:59.371Z,15.73
2018-04-20T16:37:27.781Z,15.00
2018-04-20T16:39:55.317Z,14.30
2018-04-20T16:42:23.643Z,18.23
2018-04-20T16:44:51.283Z,19.53
2018-04-20T16:47:18.821Z,17.70
2018-04-20T16:49:47.115Z,13.07
2018-04-20T16:52:14.719Z,13.97
2018-04-20T16:54:43.788Z,13.17
2018-04-20T16:57:11.313Z,11.80
2018-04-20T16:59:39.605Z,13.17
2018-04-20T17:02:07.157Z,11.77
2018-04-20T17:04:34.743Z,9.67
2018-04-20T17:07:02.287Z,8.67
2018-04-20T17:09:35.575Z,12.33
2018-04-20T17:12:03.113Z,9.47
2018-04-20T17:14:31.417Z,9.17
2018-04-20T17:16:58.957Z,5.20
2018-04-20T17:19:27.230Z,8.37
2018-04-20T17:21:55.532Z,6.60
2018-04-20T17:24:23.082Z,5.57
2018-04-20T17:26:50.599Z,10.80
2018-04-20T17:29:18.138Z,5.10
2018-04-20T17:31:45.687Z,2.87
2018-04-20T17:34:13.213Z,5.23
2018-04-20T17:36:41.502Z,4.70
2018-04-20T17:39:09.034Z,6.90
2018-04-20T17:41:37.328Z,5.27
2018-04-20T17:44:05.633Z,5.07
2018-04-20T17:46:33.294Z,5.67
2018-04-20T17:49:00.822Z,5.93
2018-04-20T17:51:29.107Z,5.60
2018-04-20T17:53:57.504Z,2.50
2018-04-20T17:56:25.028Z,5.73
2018-04-20T17:58:52.609Z,3.27
2018-04-20T18:01:20.908Z,4.40
2018-04-20T18:03:48.472Z,4.90
2018-04-20T18:06:16.003Z,5.73
2018-04-20T18:08:44.292Z,4.03
2018-04-20T18:11:11.818Z,6.60
2018-04-20T18:13:39.339Z,4.80
2018-04-20T18:16:06.917Z,4.13
2018-04-20T18:18:34.432Z,5.20
2018-04-20T18:21:02.025Z,3.80
2018-04-20T18:23:29.674Z,5.27
2018-04-20T18:25:57.219Z,6.03
2018-04-20T18:28:24.770Z,6.20
2018-04-20T18:30:53.071Z,4.40
2018-04-20T18:33:20.588Z,4.47
2018-04-20T18:35:48.896Z,5.97
2018-04-20T18:38:16.433Z,3.57
2018-04-20T18:40:44.740Z,5.73
2018-04-20T18:43:12.345Z,5.23
2018-04-20T18:45:39.886Z,8.33
2018-04-20T18:48:07.396Z,5.17
2018-04-20T18:50:35.681Z,4.40
2018-04-20T18:53:03.990Z,4.13
2018-04-20T18:55:31.503Z,4.30
2018-04-20T18:57:59.790Z,5.17
2018-04-20T19:00:28.093Z,5.43
2018-04-20T19:02:55.611Z,5.17
2018-04-20T19:05:23.138Z,4.00
2018-04-20T19:07:50.675Z,6.17
2018-04-20T19:10:18.201Z,7.80
2018-04-20T19:12:46.505Z,7.27
2018-04-20T19:15:14.060Z,10.50
2018-04-20T19:17:41.629Z,5.20
2018-04-20T19:20:09.197Z,5.70
2018-04-20T19:22:36.760Z,5.67
2018-04-20T19:25:04.269Z,6.20
2018-04-20T19:27:31.875Z,6.97
2018-04-20T19:29:59.413Z,5.20
2018-04-20T19:32:27.700Z,5.97
2018-04-20T19:34:55.259Z,7.73
2018-04-20T19:37:22.826Z,5.10
2018-04-20T19:39:50.394Z,7.10
2018-04-20T19:42:17.954Z,4.70
2018-04-20T19:44:45.496Z,5.63
2018-04-20T19:47:13.027Z,7.60
2018-04-20T19:49:40.556Z,10.10
2018-04-20T19:52:08.186Z,11.00
2018-04-20T19:54:35.742Z,10.57
2018-04-20T19:57:03.277Z,10.43
2018-04-20T19:59:31.578Z,11.10
2018-04-20T20:01:59.096Z,9.53
2018-04-20T20:04:26.635Z,10.20
2018-04-20T20:06:54.171Z,12.03
2018-04-20T20:09:21.735Z,10.83
2018-04-20T20:11:49.328Z,14.73
2018-04-20T20:14:17.685Z,16.37
2018-04-20T20:16:45.213Z,12.50
2018-04-20T20:19:13.492Z,12.00
2018-04-20T20:21:41.797Z,12.73
2018-04-20T20:24:09.312Z,10.23
2018-04-20T20:26:37.589Z,12.77
2018-04-20T20:29:05.995Z,12.50
2018-04-20T20:31:33.511Z,17.13
2018-04-20T20:34:01.027Z,20.20
2018-04-20T20:36:28.543Z,14.80
2018-04-20T20:38:56.065Z,16.50
2018-04-20T20:41:23.577Z,16.47
2018-04-20T20:43:51.864Z,19.10
2018-04-20T20:46:19.387Z,15.93
2018-04-20T20:48:46.902Z,18.33
2018-04-20T20:51:14.430Z,15.97
2018-04-20T20:53:42.741Z,19.67
2018-04-20T20:56:10.268Z,18.30
2018-04-20T20:58:38.558Z,19.10
2018-04-20T21:01:06.845Z,18.07
2018-04-20T21:03:34.366Z,22.07
2018-04-20T21:06:01.892Z,21.67
2018-04-20T21:08:29.418Z,17.00
2018-04-20T21:10:56.951Z,20.30
2018-04-20T21:13:25.273Z,20.90
2018-04-20T21:15:52.795Z,19.20
2018-04-20T21:18:21.082Z,25.13
2018-04-20T21:20:49.469Z,23.67
2018-04-20T21:23:16.977Z,21.93
2018-04-20T21:25:44.511Z,23.17
2018-04-20T21:28:12.049Z,21.13
2018-04-20T21:30:39.588Z,22.80
2018-04-20T21:33:07.899Z,27.03
2018-04-20T21:35:35.463Z,25.40
2018-04-20T21:38:02.976Z,25.67
2018-04-20T21:40:30.491Z,29.07
2018-04-20T21:42:58.138Z,27.97
2018-04-20T21:45:25.670Z,32.70
2018-04-20T21:47:53.985Z,30.67
2018-04-20T21:50:21.535Z,29.83
2018-04-20T21:52:49.051Z,35.33
2018-04-20T21:55:16.560Z,35.17
2018-04-20T21:57:44.096Z,40.43
2018-04-20T22:00:12.380Z,46.17
2018-04-20T22:02:40.681Z,46.90
2018-04-20T22:05:08.213Z,41.73
2018-04-20T22:07:36.499Z,45.37
2018-04-20T22:10:04.084Z,46.10
2018-04-20T22:12:31.624Z,51.77
2018-04-20T22:14:59.185Z,51.30
2018-04-20T22:17:26.749Z,53.97
2018-04-20T22:19:54.275Z,60.57
2018-04-20T22:22:22.570Z,59.43
2018-04-20T22:24:50.955Z,60.27
2018-04-20T22:27:18.516Z,62.37
2018-04-20T22:29:46.089Z,57.37
2018-04-20T22:32:13.612Z,61.50
2018-04-20T22:34:41.898Z,64.20
2018-04-20T22:37:10.216Z,65.20
2018-04-20T22:39:37.771Z,68.07
2018-04-20T22:42:05.321Z,64.77
2018-04-20T22:44:32.871Z,69.33
2018-04-20T22:47:00.444Z,70.20
2018-04-20T22:49:28.000Z,72.23
2018-04-20T22:51:55.522Z,67.07
2018-04-20T22:54:23.132Z,80.37
2018-04-20T22:56:50.665Z,74.30
2018-04-20T22:59:18.935Z,79.40
2018-04-20T23:01:47.225Z,75.67
2018-04-20T23:04:14.763Z,81.67
2018-04-20T23:06:43.077Z,79.67
2018-04-20T23:09:10.665Z,78.30
2018-04-20T23:11:38.187Z,79.93
2018-04-20T23:14:05.709Z,80.90
2018-04-20T23:16:33.233Z,80.27
2018-04-20T23:19:00.771Z,87.30
2018-04-20T23:21:28.337Z,93.53
2018-04-20T23:23:55.856Z,85.63
2018-04-20T23:26:23.451Z,90.23
2018-04-20T23:28:50.981Z,87.47
2018-04-20T23:31:18.493Z,100.20
2018-04-20T23:33:46.015Z,99.87
2018-04-20T23:36:14.367Z,92.87
2018-04-20T23:38:41.863Z,99.00
2018-04-20T23:41:09.434Z,97.53
2018-04-20T23:43:36.944Z,94.10
2018-04-20T23:46:04.476Z,99.13
2018-04-20T23:48:32.091Z,101.00
2018-04-20T23:51:00.380Z,100.60
2018-04-20T23:53:27.908Z,102.60
2018-04-20T23:55:55.526Z,106.03
2018-04-20T23:58:23.045Z,103.20
